Back to Top

Language: 

My Weather Underground Personal Weather Station Historical Data with Graphs...

Delerius Weather Station Historical Data
Daily Summary for December 11, 2017 Units:  English    Metric   Both
« Previous Day
Next Day »
Daily Weekly Monthly Yearly Custom
  High: Low: Average:
Temperature: 37.2 °F 26.2 °F 30.4 °F
Dew Point: 29.7 °F 22.6 °F 26.4 °F
Humidity: 93 % 71 % 85 %
Wind Speed: 9.0 mph 0.0 mph 4.3 mph
Wind Gust: 14.0 mph - -
Wind:- - NW
Pressure: 29.51 in 29.05 in -
Precipitation: 0.02 in    
Historical Graphs
 
 
Tabular Data for December 11, 2017
Time Temperature Dew Point Pressure Wind Wind Speed Wind Gust Humidity Rainfall Rate (Hourly) solar Conditions
00:06 30.9 °F 28.3 °F 29.06 in NW 1.0 mph 5.0 mph 90 % 0.00 in 0 W/m2
00:11 30.9 °F 28.3 °F 29.05 in NNW 5.0 mph 8.0 mph 90 % 0.00 in 0 W/m2
00:16 30.7 °F 28.2 °F 29.05 in NW 3.0 mph 7.0 mph 90 % 0.00 in 0 W/m2
00:21 30.6 °F 28.0 °F 29.05 in NNW 4.0 mph 6.0 mph 90 % 0.00 in 0 W/m2
00:26 30.6 °F 28.0 °F 29.05 in NNW 2.0 mph 5.0 mph 90 % 0.00 in 0 W/m2
00:31 30.4 °F 27.8 °F 29.06 in NW 2.0 mph 6.0 mph 90 % 0.00 in 0 W/m2
00:36 30.4 °F 27.8 °F 29.06 in NNW 1.0 mph 5.0 mph 90 % 0.00 in 0 W/m2
00:41 30.2 °F 27.6 °F 29.06 in Calm   1.0 mph 90 % 0.00 in 0 W/m2
00:46 30.0 °F 27.4 °F 29.07 in Calm   2.0 mph 90 % 0.00 in 0 W/m2
00:56 29.5 °F 26.9 °F 29.07 in NNW 2.0 mph 5.0 mph 90 % 0.00 in 0 W/m2
01:01 29.3 °F 26.7 °F 29.07 in NNW 1.0 mph 3.0 mph 90 % 0.00 in 0 W/m2
01:06 29.1 °F 26.6 °F 29.07 in NW 1.0 mph 5.0 mph 90 % 0.00 in 0 W/m2
01:11 29.1 °F 26.8 °F 29.07 in NW 2.0 mph 5.0 mph 91 % 0.00 in 0 W/m2
01:16 29.1 °F 26.8 °F 29.07 in NW 1.0 mph 5.0 mph 91 % 0.00 in 0 W/m2
01:21 28.9 °F 26.6 °F 29.08 in NW 1.0 mph 4.0 mph 91 % 0.00 in 0 W/m2
01:26 28.9 °F 26.6 °F 29.08 in NW 1.0 mph 4.0 mph 91 % 0.00 in 0 W/m2
01:36 28.8 °F 26.5 °F 29.08 in NW 2.0 mph 4.0 mph 91 % 0.00 in 0 W/m2
01:41 28.8 °F 26.5 °F 29.09 in Calm   2.0 mph 91 % 0.00 in 0 W/m2
01:46 28.8 °F 26.5 °F 29.09 in WNW 1.0 mph 4.0 mph 91 % 0.00 in 0 W/m2
01:51 28.6 °F 26.3 °F 29.09 in WNW 1.0 mph 4.0 mph 91 % 0.00 in 0 W/m2
01:56 28.6 °F 26.3 °F 29.09 in WNW 2.0 mph 4.0 mph 91 % 0.00 in 0 W/m2
02:01 28.4 °F 26.4 °F 29.09 in WNW 1.0 mph 4.0 mph 92 % 0.00 in 0 W/m2
02:06 28.4 °F 26.4 °F 29.09 in WNW 3.0 mph 5.0 mph 92 % 0.00 in 0 W/m2
02:11 28.4 °F 26.4 °F 29.09 in NW 2.0 mph 6.0 mph 92 % 0.00 in 0 W/m2
02:16 28.4 °F 26.4 °F 29.10 in NW 3.0 mph 6.0 mph 92 % 0.00 in 0 W/m2
02:21 28.4 °F 26.4 °F 29.10 in NNW 4.0 mph 7.0 mph 92 % 0.00 in 0 W/m2
02:26 28.6 °F 26.6 °F 29.10 in NW 4.0 mph 6.0 mph 92 % 0.00 in 0 W/m2
02:31 28.6 °F 26.6 °F 29.10 in NW 3.0 mph 6.0 mph 92 % 0.00 in 0 W/m2
02:36 28.6 °F 26.6 °F 29.10 in NW 3.0 mph 5.0 mph 92 % 0.00 in 0 W/m2
02:42 28.6 °F 26.6 °F 29.10 in NW 3.0 mph 5.0 mph 92 % 0.00 in 0 W/m2
02:47 28.4 °F 26.4 °F 29.10 in NW 1.0 mph 4.0 mph 92 % 0.00 in 0 W/m2
02:52 28.2 °F 26.2 °F 29.10 in NW 3.0 mph 6.0 mph 92 % 0.00 in 0 W/m2
02:57 28.2 °F 26.2 °F 29.10 in NW 4.0 mph 6.0 mph 92 % 0.00 in 0 W/m2
03:02 28.0 °F 26.0 °F 29.11 in NW 3.0 mph 5.0 mph 92 % 0.00 in 0 W/m2
03:07 28.0 °F 26.0 °F 29.11 in NW 2.0 mph 5.0 mph 92 % 0.00 in 0 W/m2
03:12 28.0 °F 26.0 °F 29.10 in NW 2.0 mph 6.0 mph 92 % 0.00 in 0 W/m2
03:23 27.9 °F 25.8 °F 29.11 in Calm   3.0 mph 92 % 0.00 in 0 W/m2
03:38 27.7 °F 25.4 °F 29.10 in NW 2.0 mph 4.0 mph 91 % 0.00 in 0 W/m2
03:43 27.3 °F 25.0 °F 29.10 in NW 3.0 mph 5.0 mph 91 % 0.00 in 0 W/m2
03:48 27.3 °F 25.0 °F 29.10 in NW 2.0 mph 6.0 mph 91 % 0.00 in 0 W/m2
03:58 27.1 °F 25.1 °F 29.09 in NW 2.0 mph 5.0 mph 92 % 0.00 in 0 W/m2
04:03 27.1 °F 25.1 °F 29.10 in Calm   2.0 mph 92 % 0.00 in 0 W/m2
04:08 27.1 °F 25.1 °F 29.10 in NW 2.0 mph 3.0 mph 92 % 0.00 in 0 W/m2
04:13 27.0 °F 24.9 °F 29.10 in NW 3.0 mph 5.0 mph 92 % 0.00 in 0 W/m2
04:18 27.0 °F 24.9 °F 29.10 in NW 3.0 mph 5.0 mph 92 % 0.00 in 0 W/m2
04:23 27.0 °F 24.9 °F 29.10 in NNW 5.0 mph 7.0 mph 92 % 0.00 in 0 W/m2
04:28 27.3 °F 25.6 °F 29.10 in NNW 7.0 mph 11.0 mph 93 % 0.00 in 0 W/m2
04:33 27.9 °F 25.8 °F 29.10 in NNW 5.0 mph 8.0 mph 92 % 0.00 in 0 W/m2
04:43 28.2 °F 25.9 °F 29.09 in NW 4.0 mph 7.0 mph 91 % 0.00 in 0 W/m2
04:48 28.0 °F 25.8 °F 29.09 in NW 3.0 mph 6.0 mph 91 % 0.00 in 0 W/m2
04:53 27.9 °F 25.3 °F 29.09 in NW 2.0 mph 4.0 mph 90 % 0.00 in 0 W/m2
04:58 27.9 °F 25.3 °F 29.09 in NW 3.0 mph 4.0 mph 90 % 0.00 in 0 W/m2
05:08 27.3 °F 24.8 °F 29.09 in NNW 3.0 mph 5.0 mph 90 % 0.00 in 0 W/m2
05:13 27.1 °F 24.6 °F 29.09 in NNW 2.0 mph 6.0 mph 90 % 0.00 in 0 W/m2
05:18 27.1 °F 24.9 °F 29.09 in NNW 3.0 mph 5.0 mph 91 % 0.00 in 0 W/m2
05:23 27.1 °F 24.9 °F 29.09 in NNW 3.0 mph 6.0 mph 91 % 0.00 in 0 W/m2
05:28 27.1 °F 24.9 °F 29.09 in NNW 4.0 mph 8.0 mph 91 % 0.00 in 0 W/m2
05:38 27.9 °F 25.6 °F 29.09 in NNW 4.0 mph 7.0 mph 91 % 0.00 in 0 W/m2
05:43 28.0 °F 25.8 °F 29.09 in North 5.0 mph 7.0 mph 91 % 0.00 in 0 W/m2
05:48 28.2 °F 25.7 °F 29.09 in NNW 5.0 mph 10.0 mph 90 % 0.00 in 0 W/m2
05:53 28.4 °F 25.8 °F 29.09 in NNW 5.0 mph 10.0 mph 90 % 0.00 in 0 W/m2
05:58 28.6 °F 25.8 °F 29.09 in NNW 6.0 mph 9.0 mph 89 % 0.00 in 0 W/m2
06:01 28.6 °F 25.8 °F 29.09 in NNW 6.0 mph 9.0 mph 89 % 0.00 in 0 W/m2
06:06 28.6 °F 25.5 °F 29.09 in NNW 5.0 mph 9.0 mph 88 % 0.00 in 0 W/m2
06:11 28.6 °F 25.5 °F 29.10 in NNW 6.0 mph 8.0 mph 88 % 0.00 in 0 W/m2
06:16 28.6 °F 25.5 °F 29.10 in NNW 4.0 mph 9.0 mph 88 % 0.00 in 0 W/m2
06:21 28.6 °F 25.2 °F 29.10 in NNW 3.0 mph 6.0 mph 87 % 0.00 in 0 W/m2
06:26 28.6 °F 25.2 °F 29.10 in NNW 2.0 mph 5.0 mph 87 % 0.00 in 0 W/m2
06:31 28.6 °F 25.2 °F 29.10 in NNW 5.0 mph 9.0 mph 87 % 0.00 in 0 W/m2
06:36 28.6 °F 25.2 °F 29.11 in NNW 5.0 mph 10.0 mph 87 % 0.00 in 0 W/m2
06:41 28.6 °F 24.9 °F 29.11 in NNW 6.0 mph 8.0 mph 86 % 0.00 in 0 W/m2
06:44 28.6 °F 24.9 °F 29.11 in NNW 4.0 mph 7.0 mph 86 % 0.00 in 0 W/m2
06:49 28.6 °F 24.9 °F 29.11 in NW 3.0 mph 6.0 mph 86 % 0.00 in 0 W/m2
06:54 28.6 °F 24.9 °F 29.11 in NNW 3.0 mph 7.0 mph 86 % 0.00 in 0 W/m2
06:59 28.6 °F 24.9 °F 29.12 in NW 2.0 mph 6.0 mph 86 % 0.00 in 0 W/m2
07:09 28.4 °F 24.7 °F 29.12 in NNW 3.0 mph 10.0 mph 86 % 0.00 in 0 W/m2
07:19 28.6 °F 24.9 °F 29.13 in NNW 4.0 mph 8.0 mph 86 % 0.00 in 0 W/m2
07:29 28.6 °F 24.9 °F 29.13 in NNW 5.0 mph 8.0 mph 86 % 0.00 in 0 W/m2
07:34 28.6 °F 24.6 °F 29.13 in NW 4.0 mph 6.0 mph 85 % 0.00 in 0 W/m2
07:42 28.4 °F 24.5 °F 29.14 in NW 2.0 mph 5.0 mph 85 % 0.00 in 0 W/m2
07:47 28.2 °F 24.3 °F 29.14 in NW 1.0 mph 2.0 mph 85 % 0.00 in 0 W/m2
07:52 28.0 °F 24.1 °F 29.14 in Calm   2.0 mph 85 % 0.00 in 0 W/m2
07:57 27.9 °F 23.9 °F 29.15 in NW 1.0 mph 3.0 mph 85 % 0.00 in 0 W/m2
08:02 27.7 °F 23.8 °F 29.15 in Calm   1.0 mph 85 % 0.00 in 0 W/m2
08:12 27.1 °F 23.2 °F 29.16 in Calm   2.0 mph 85 % 0.00 in 0 W/m2
08:17 26.8 °F 22.9 °F 29.16 in NW 1.0 mph 2.0 mph 85 % 0.00 in 0 W/m2
08:22 26.4 °F 22.8 °F 29.15 in NW 1.0 mph 2.0 mph 86 % 0.00 in 0 W/m2
08:27 26.2 °F 22.6 °F 29.16 in NW 3.0 mph 5.0 mph 86 % 0.00 in 5 W/m2
08:37 26.2 °F 23.2 °F 29.16 in NW 1.0 mph 4.0 mph 88 % 0.00 in 7 W/m2
08:42 26.4 °F 23.3 °F 29.16 in NW 2.0 mph 5.0 mph 88 % 0.00 in 7 W/m2
08:47 26.6 °F 23.5 °F 29.16 in NW 1.0 mph 4.0 mph 88 % 0.00 in 9 W/m2
08:58 27.0 °F 23.9 °F 29.16 in NW 2.0 mph 6.0 mph 88 % 0.00 in 12 W/m2
09:02 27.0 °F 23.9 °F 29.16 in NW 1.0 mph 5.0 mph 88 % 0.00 in 12 W/m2
09:08 27.1 °F 24.1 °F 29.16 in NW 2.0 mph 5.0 mph 88 % 0.00 in 14 W/m2
09:13 27.3 °F 24.2 °F 29.16 in NW 1.0 mph 4.0 mph 88 % 0.00 in 18 W/m2
09:18 27.5 °F 24.4 °F 29.17 in NW 2.0 mph 5.0 mph 88 % 0.00 in 19 W/m2
09:23 27.7 °F 24.6 °F 29.17 in NW 4.0 mph 7.0 mph 88 % 0.00 in 23 W/m2
09:28 28.0 °F 24.9 °F 29.17 in NW 5.0 mph 9.0 mph 88 % 0.00 in 25 W/m2
09:38 28.8 °F 25.4 °F 29.17 in NW 6.0 mph 8.0 mph 87 % 0.00 in 28 W/m2
09:43 28.9 °F 25.6 °F 29.17 in NW 6.0 mph 11.0 mph 87 % 0.00 in 30 W/m2
09:48 29.1 °F 25.5 °F 29.18 in NW 7.0 mph 10.0 mph 86 % 0.00 in 32 W/m2
09:53 29.5 °F 25.5 °F 29.18 in NW 5.0 mph 8.0 mph 85 % 0.00 in 35 W/m2
09:58 29.7 °F 25.7 °F 29.18 in NW 5.0 mph 9.0 mph 85 % 0.00 in 35 W/m2
10:08 30.0 °F 25.8 °F 29.18 in NW 4.0 mph 6.0 mph 84 % 0.00 in 33 W/m2
10:13 30.0 °F 25.8 °F 29.18 in NW 4.0 mph 6.0 mph 84 % 0.00 in 32 W/m2
10:18 30.4 °F 26.1 °F 29.18 in NW 4.0 mph 7.0 mph 84 % 0.00 in 30 W/m2
10:23 30.6 °F 26.3 °F 29.18 in NW 3.0 mph 5.0 mph 84 % 0.00 in 28 W/m2
10:28 30.7 °F 26.5 °F 29.19 in NW 4.0 mph 8.0 mph 84 % 0.00 in 28 W/m2
10:33 31.1 °F 27.1 °F 29.19 in NW 3.0 mph 7.0 mph 85 % 0.00 in 23 W/m2
10:38 31.5 °F 27.2 °F 29.19 in NW 4.0 mph 6.0 mph 84 % 0.00 in 25 W/m2
10:43 31.6 °F 27.4 °F 29.19 in NW 4.0 mph 8.0 mph 84 % 0.00 in 28 W/m2
10:48 31.8 °F 27.5 °F 29.19 in NW 4.0 mph 8.0 mph 84 % 0.00 in 26 W/m2
10:53 32.0 °F 27.7 °F 29.19 in NW 5.0 mph 8.0 mph 84 % 0.00 in 28 W/m2
10:58 32.2 °F 27.6 °F 29.19 in NW 4.0 mph 6.0 mph 83 % 0.00 in 33 W/m2
11:03 32.2 °F 27.6 °F 29.19 in NW 4.0 mph 6.0 mph 83 % 0.00 in 32 W/m2
11:08 32.2 °F 27.6 °F 29.19 in NW 4.0 mph 6.0 mph 83 % 0.00 in 35 W/m2
11:13 32.2 °F 27.3 °F 29.19 in NW 3.0 mph 5.0 mph 82 % 0.00 in 70 W/m2
11:24 32.4 °F 27.5 °F 29.20 in NW 5.0 mph 9.0 mph 82 % 0.00 in 90 W/m2
11:39 33.1 °F 28.2 °F 29.20 in NW 6.0 mph 11.0 mph 82 % 0.00 in 86 W/m2
11:44 33.4 °F 28.2 °F 29.20 in NW 4.0 mph 7.0 mph 81 % 0.00 in 174 W/m2
11:49 33.6 °F 28.1 °F 29.20 in NW 7.0 mph 10.0 mph 80 % 0.00 in 88 W/m2
11:54 33.6 °F 28.1 °F 29.20 in NW 8.0 mph 13.0 mph 80 % 0.00 in 148 W/m2
11:57 33.6 °F 28.1 °F 29.20 in NW 8.0 mph 11.0 mph 80 % 0.00 in 193 W/m2
12:02 34.0 °F 28.2 °F 29.20 in NW 8.0 mph 13.0 mph 79 % 0.00 in 264 W/m2
12:07 34.2 °F 28.3 °F 29.20 in NW 7.0 mph 11.0 mph 79 % 0.00 in 327 W/m2
12:12 34.5 °F 28.7 °F 29.20 in NW 8.0 mph 13.0 mph 79 % 0.00 in 341 W/m2
12:17 34.9 °F 28.7 °F 29.20 in NW 9.0 mph 14.0 mph 78 % 0.00 in 334 W/m2
12:32 35.4 °F 28.9 °F 29.21 in NW 8.0 mph 12.0 mph 77 % 0.00 in 239 W/m2
12:37 35.8 °F 29.3 °F 29.21 in NW 7.0 mph 12.0 mph 77 % 0.01 in 227 W/m2
12:42 35.8 °F 29.0 °F 29.21 in NW 8.0 mph 11.0 mph 76 % 0.01 in 225 W/m2
12:47 36.0 °F 29.1 °F 29.21 in NW 7.0 mph 13.0 mph 76 % 0.01 in 221 W/m2
12:52 36.1 °F 29.3 °F 29.21 in NW 7.0 mph 11.0 mph 76 % 0.01 in 220 W/m2
13:02 36.3 °F 29.2 °F 29.22 in NW 5.0 mph 10.0 mph 75 % 0.01 in 213 W/m2
13:07 36.7 °F 29.5 °F 29.22 in NW 5.0 mph 11.0 mph 75 % 0.01 in 209 W/m2
13:08 36.7 °F 29.5 °F 29.22 in NW 5.0 mph 11.0 mph 75 % 0.01 in 209 W/m2
13:13 36.9 °F 29.7 °F 29.22 in NW 4.0 mph 7.0 mph 75 % 0.01 in 202 W/m2
13:18 37.0 °F 29.5 °F 29.22 in NW 6.0 mph 9.0 mph 74 % 0.01 in 199 W/m2
13:23 37.2 °F 29.4 °F 29.23 in NW 7.0 mph 12.0 mph 73 % 0.01 in 195 W/m2
13:33 37.2 °F 29.4 °F 29.23 in NW 7.0 mph 11.0 mph 73 % 0.00 in 185 W/m2
13:38 37.2 °F 29.4 °F 29.23 in NW 8.0 mph 13.0 mph 73 % 0.00 in 178 W/m2
13:43 37.0 °F 28.8 °F 29.23 in NW 7.0 mph 12.0 mph 72 % 0.00 in 171 W/m2
13:48 37.0 °F 28.8 °F 29.24 in NW 8.0 mph 11.0 mph 72 % 0.00 in 165 W/m2
13:58 37.0 °F 28.8 °F 29.24 in NW 7.0 mph 12.0 mph 72 % 0.01 in 153 W/m2
14:13 37.0 °F 28.5 °F 29.24 in NW 9.0 mph 12.0 mph 71 % 0.01 in 134 W/m2
14:28 36.9 °F 28.3 °F 29.25 in NW 5.0 mph 9.0 mph 71 % 0.01 in 102 W/m2
14:33 36.7 °F 28.2 °F 29.25 in NW 6.0 mph 11.0 mph 71 % 0.01 in 100 W/m2
14:38 36.5 °F 28.0 °F 29.25 in NW 6.0 mph 11.0 mph 71 % 0.01 in 91 W/m2
14:43 36.3 °F 27.8 °F 29.25 in NW 6.0 mph 9.0 mph 71 % 0.01 in 83 W/m2
14:48 36.0 °F 27.8 °F 29.25 in NW 6.0 mph 9.0 mph 72 % 0.01 in 74 W/m2
15:03 35.4 °F 27.6 °F 29.25 in NW 7.0 mph 11.0 mph 73 % 0.00 in 19 W/m2
15:19 34.7 °F 26.9 °F 29.26 in NW 5.0 mph 8.0 mph 73 % 0.00 in 14 W/m2
15:24 34.5 °F 27.1 °F 29.26 in NW 6.0 mph 8.0 mph 74 % 0.00 in 14 W/m2
15:29 34.2 °F 26.7 °F 29.26 in NW 5.0 mph 8.0 mph 74 % 0.00 in 11 W/m2
15:39 33.8 °F 26.4 °F 29.27 in NW 5.0 mph 9.0 mph 74 % 0.00 in 7 W/m2
15:49 33.3 °F 26.2 °F 29.27 in NW 4.0 mph 7.0 mph 75 % 0.00 in 5 W/m2
15:55 33.1 °F 26.0 °F 29.27 in NNW 3.0 mph 7.0 mph 75 % 0.00 in 0 W/m2
15:59 32.9 °F 25.8 °F 29.28 in NW 5.0 mph 9.0 mph 75 % 0.00 in 0 W/m2
16:10 32.5 °F 25.8 °F 29.29 in NW 5.0 mph 7.0 mph 76 % 0.00 in 0 W/m2
16:15 32.4 °F 25.6 °F 29.29 in NW 5.0 mph 8.0 mph 76 % 0.00 in 0 W/m2
16:20 32.2 °F 25.5 °F 29.29 in NW 5.0 mph 10.0 mph 76 % 0.00 in 0 W/m2
16:30 31.8 °F 25.4 °F 29.30 in WNW 4.0 mph 7.0 mph 77 % 0.00 in 0 W/m2
16:35 31.6 °F 25.3 °F 29.30 in WNW 4.0 mph 7.0 mph 77 % 0.00 in 0 W/m2
16:40 31.5 °F 25.4 °F 29.30 in WNW 4.0 mph 6.0 mph 78 % 0.00 in 0 W/m2
16:45 31.3 °F 25.2 °F 29.30 in NW 3.0 mph 6.0 mph 78 % 0.00 in 0 W/m2
16:50 30.9 °F 24.9 °F 29.30 in WNW 3.0 mph 6.0 mph 78 % 0.00 in 0 W/m2
16:55 30.7 °F 25.0 °F 29.30 in WNW 5.0 mph 7.0 mph 79 % 0.00 in 0 W/m2
16:56 30.7 °F 25.0 °F 29.30 in WNW 5.0 mph 7.0 mph 79 % 0.00 in 0 W/m2
17:06 30.6 °F 25.1 °F 29.31 in NW 4.0 mph 6.0 mph 80 % 0.00 in 0 W/m2
17:16 30.4 °F 24.9 °F 29.31 in WNW 5.0 mph 8.0 mph 80 % 0.00 in 0 W/m2
17:31 30.6 °F 25.4 °F 29.32 in NW 5.0 mph 11.0 mph 81 % 0.00 in 0 W/m2
17:36 30.6 °F 25.4 °F 29.32 in NW 5.0 mph 7.0 mph 81 % 0.00 in 0 W/m2
17:41 30.6 °F 25.4 °F 29.32 in NW 6.0 mph 10.0 mph 81 % 0.00 in 0 W/m2
17:46 30.7 °F 25.9 °F 29.33 in NW 7.0 mph 13.0 mph 82 % 0.00 in 0 W/m2
17:51 30.9 °F 26.1 °F 29.33 in WNW 7.0 mph 11.0 mph 82 % 0.00 in 0 W/m2
17:56 30.9 °F 25.8 °F 29.33 in NW 6.0 mph 10.0 mph 81 % 0.00 in 0 W/m2
18:01 30.9 °F 25.8 °F 29.33 in WNW 7.0 mph 10.0 mph 81 % 0.00 in 0 W/m2
18:06 30.9 °F 25.8 °F 29.33 in WNW 7.0 mph 12.0 mph 81 % 0.00 in 0 W/m2
18:11 30.7 °F 25.6 °F 29.33 in NW 6.0 mph 8.0 mph 81 % 0.00 in 0 W/m2
18:21 30.6 °F 25.7 °F 29.34 in NW 5.0 mph 9.0 mph 82 % 0.00 in 0 W/m2
18:26 30.4 °F 25.5 °F 29.34 in NW 5.0 mph 8.0 mph 82 % 0.00 in 0 W/m2
18:31 30.4 °F 25.5 °F 29.34 in NW 5.0 mph 8.0 mph 82 % 0.00 in 0 W/m2
18:36 30.4 °F 25.5 °F 29.35 in NW 5.0 mph 8.0 mph 82 % 0.00 in 0 W/m2
18:41 30.4 °F 25.8 °F 29.35 in WNW 6.0 mph 9.0 mph 83 % 0.00 in 0 W/m2
18:46 30.4 °F 25.8 °F 29.35 in WNW 6.0 mph 11.0 mph 83 % 0.00 in 0 W/m2
18:51 30.2 °F 25.7 °F 29.35 in WNW 6.0 mph 9.0 mph 83 % 0.00 in 0 W/m2
18:56 30.2 °F 25.7 °F 29.35 in NW 6.0 mph 9.0 mph 83 % 0.00 in 0 W/m2
19:01 30.2 °F 25.7 °F 29.36 in NW 6.0 mph 8.0 mph 83 % 0.00 in 0 W/m2
19:06 30.2 °F 25.9 °F 29.37 in NW 6.0 mph 9.0 mph 84 % 0.00 in 0 W/m2
19:11 30.2 °F 25.9 °F 29.37 in NW 4.0 mph 7.0 mph 84 % 0.00 in 0 W/m2
19:26 30.0 °F 26.1 °F 29.38 in NW 5.0 mph 7.0 mph 85 % 0.00 in 0 W/m2
19:31 30.0 °F 26.1 °F 29.38 in WNW 4.0 mph 7.0 mph 85 % 0.00 in 0 W/m2
19:36 30.2 °F 26.2 °F 29.39 in NW 5.0 mph 8.0 mph 85 % 0.00 in 0 W/m2
19:41 30.4 °F 26.4 °F 29.39 in WNW 5.0 mph 7.0 mph 85 % 0.00 in 0 W/m2
19:47 30.4 °F 26.4 °F 29.40 in NW 5.0 mph 8.0 mph 85 % 0.00 in 0 W/m2
19:52 30.4 °F 26.4 °F 29.40 in WNW 5.0 mph 7.0 mph 85 % 0.00 in 0 W/m2
19:57 30.4 °F 26.4 °F 29.40 in WNW 5.0 mph 10.0 mph 85 % 0.00 in 0 W/m2
20:02 30.4 °F 26.7 °F 29.41 in WNW 4.0 mph 7.0 mph 86 % 0.00 in 0 W/m2
20:07 30.2 °F 26.5 °F 29.41 in NW 4.0 mph 6.0 mph 86 % 0.00 in 0 W/m2
20:12 30.2 °F 26.5 °F 29.41 in WNW 6.0 mph 8.0 mph 86 % 0.00 in 0 W/m2
20:17 30.2 °F 26.5 °F 29.42 in NW 5.0 mph 7.0 mph 86 % 0.00 in 0 W/m2
20:22 30.2 °F 26.5 °F 29.42 in WNW 5.0 mph 9.0 mph 86 % 0.00 in 0 W/m2
20:27 30.0 °F 26.3 °F 29.42 in WNW 4.0 mph 7.0 mph 86 % 0.00 in 0 W/m2
20:28 30.0 °F 26.3 °F 29.43 in WNW 4.0 mph 7.0 mph 86 % 0.00 in 0 W/m2
20:33 30.0 °F 26.3 °F 29.43 in WNW 3.0 mph 6.0 mph 86 % 0.00 in 0 W/m2
20:38 30.0 °F 26.6 °F 29.44 in WNW 5.0 mph 7.0 mph 87 % 0.00 in 0 W/m2
20:43 30.0 °F 26.6 °F 29.43 in WNW 4.0 mph 7.0 mph 87 % 0.00 in 0 W/m2
20:48 30.0 °F 26.6 °F 29.44 in WNW 4.0 mph 6.0 mph 87 % 0.00 in 0 W/m2
20:53 29.8 °F 26.4 °F 29.44 in NW 4.0 mph 9.0 mph 87 % 0.00 in 0 W/m2
20:58 30.0 °F 26.9 °F 29.44 in WNW 6.0 mph 9.0 mph 88 % 0.00 in 0 W/m2
21:03 30.0 °F 26.9 °F 29.44 in NW 6.0 mph 8.0 mph 88 % 0.00 in 0 W/m2
21:05 30.0 °F 26.9 °F 29.44 in NW 6.0 mph 9.0 mph 88 % 0.00 in 0 W/m2
21:10 30.2 °F 27.1 °F 29.45 in NW 5.0 mph 8.0 mph 88 % 0.00 in 0 W/m2
21:15 30.4 °F 27.5 °F 29.45 in NW 4.0 mph 7.0 mph 89 % 0.00 in 0 W/m2
21:20 30.4 °F 27.5 °F 29.45 in WNW 5.0 mph 7.0 mph 89 % 0.00 in 0 W/m2
21:30 30.4 °F 27.5 °F 29.46 in NW 4.0 mph 7.0 mph 89 % 0.00 in 0 W/m2
21:35 30.6 °F 27.7 °F 29.46 in NW 5.0 mph 9.0 mph 89 % 0.00 in 0 W/m2
21:40 30.6 °F 27.7 °F 29.47 in NW 5.0 mph 7.0 mph 89 % 0.00 in 0 W/m2
21:45 30.6 °F 27.7 °F 29.46 in WNW 6.0 mph 8.0 mph 89 % 0.00 in 0 W/m2
21:50 30.6 °F 27.7 °F 29.47 in WNW 5.0 mph 7.0 mph 89 % 0.00 in 0 W/m2
22:00 30.6 °F 27.7 °F 29.47 in NW 5.0 mph 9.0 mph 89 % 0.00 in 0 W/m2
22:10 30.6 °F 27.7 °F 29.47 in NW 5.0 mph 9.0 mph 89 % 0.00 in 0 W/m2
22:15 30.7 °F 28.2 °F 29.47 in NW 6.0 mph 10.0 mph 90 % 0.00 in 0 W/m2
22:20 30.7 °F 28.2 °F 29.48 in NW 7.0 mph 11.0 mph 90 % 0.00 in 0 W/m2
22:25 30.9 °F 28.3 °F 29.48 in WNW 6.0 mph 9.0 mph 90 % 0.00 in 0 W/m2
22:30 30.9 °F 28.1 °F 29.48 in WNW 6.0 mph 9.0 mph 89 % 0.00 in 0 W/m2
22:45 30.9 °F 28.1 °F 29.48 in WNW 7.0 mph 10.0 mph 89 % 0.00 in 0 W/m2
22:50 31.1 °F 28.2 °F 29.48 in WNW 6.0 mph 9.0 mph 89 % 0.00 in 0 W/m2
22:55 31.1 °F 28.2 °F 29.49 in NW 5.0 mph 8.0 mph 89 % 0.00 in 0 W/m2
23:00 31.1 °F 28.2 °F 29.49 in NW 5.0 mph 7.0 mph 89 % 0.00 in 0 W/m2
23:05 31.1 °F 28.2 °F 29.49 in NW 6.0 mph 8.0 mph 89 % 0.00 in 0 W/m2
23:15 30.9 °F 28.1 °F 29.49 in WNW 4.0 mph 7.0 mph 89 % 0.00 in 0 W/m2
23:35 30.9 °F 28.3 °F 29.50 in WNW 6.0 mph 10.0 mph 90 % 0.00 in 0 W/m2
23:40 30.9 °F 28.3 °F 29.50 in WNW 5.0 mph 9.0 mph 90 % 0.00 in 0 W/m2
23:50 31.1 °F 28.5 °F 29.51 in NW 6.0 mph 9.0 mph 90 % 0.00 in 0 W/m2
23:55 31.1 °F 28.5 °F 29.51 in NW 6.0 mph 9.0 mph 90 % 0.00 in 0 W/m2
Delerius-Weather
Compliments of Weather Underground - 2 mb

Data updates at regular intervals.